createdAt,value
2022-09-18T00:02:42.996Z,86.59259
2022-09-18T00:07:43.961Z,86.26328
2022-09-18T00:12:45.009Z,86.26328
2022-09-18T00:17:45.924Z,86.26328
2022-09-18T00:22:46.974Z,86.59259
2022-09-18T00:28:04.800Z,86.26328
2022-09-18T00:33:05.741Z,85.6092
2022-09-18T00:38:06.688Z,85.2844
2022-09-18T00:43:07.563Z,85.6092
2022-09-18T00:48:08.515Z,85.2844
2022-09-18T00:53:09.402Z,85.6092
2022-09-18T00:58:10.354Z,86.59259
2022-09-18T01:03:11.337Z,85.93548
2022-09-18T01:08:12.365Z,86.92343
2022-09-18T01:13:13.420Z,87.25581
2022-09-18T01:18:14.347Z,87.92523
2022-09-18T01:23:15.311Z,88.94118
2022-09-18T01:28:16.268Z,88.94118
2022-09-18T01:33:17.215Z,88.60094
2022-09-18T01:38:18.171Z,88.2623
2022-09-18T01:43:19.093Z,87.58974
2022-09-18T01:48:20.017Z,88.94118
2022-09-18T01:53:20.941Z,88.60094
2022-09-18T02:04:02.385Z,88.2623
2022-09-18T02:09:03.386Z,88.2623
2022-09-18T02:14:04.491Z,88.2623
2022-09-18T02:19:05.887Z,87.58974
2022-09-18T02:24:06.851Z,88.2623
2022-09-18T02:29:07.731Z,89.28302
2022-09-18T02:34:08.858Z,89.28302
2022-09-18T02:39:09.899Z,89.97156
2022-09-18T02:44:10.858Z,89.62648
2022-09-18T02:49:11.830Z,88.94118
2022-09-18T02:54:12.712Z,88.60094
2022-09-18T02:59:13.629Z,91.01671
2022-09-18T03:04:14.579Z,89.28302
2022-09-18T03:09:15.594Z,88.94118
2022-09-18T03:14:16.572Z,88.94118
2022-09-18T03:19:17.475Z,89.28302
2022-09-18T03:24:18.394Z,89.97156
2022-09-18T03:29:19.334Z,88.60094
2022-09-18T03:34:20.307Z,89.28302
2022-09-18T03:39:21.497Z,91.01671
2022-09-18T03:44:22.433Z,89.97156
2022-09-18T03:49:23.342Z,91.01671
2022-09-18T03:54:24.248Z,92.07692
2022-09-18T03:59:25.146Z,92.07692
2022-09-18T04:04:26.061Z,92.79227
2022-09-18T04:09:27.256Z,93.51456
2022-09-18T04:14:30.082Z,92.79227
2022-09-18T04:19:31.504Z,91.72182
2022-09-18T04:24:32.398Z,91.01671
2022-09-18T04:29:33.520Z,92.07692
2022-09-18T04:34:34.536Z,93.15254
2022-09-18T04:39:35.470Z,94.2439
2022-09-18T04:44:36.396Z,95.35135
2022-09-18T04:49:37.346Z,96.09877
2022-09-18T04:54:38.263Z,98.0
2022-09-18T04:59:39.169Z,94.98039
2022-09-18T05:04:41.725Z,95.35135
2022-09-18T05:09:42.691Z,96.47525
2022-09-18T05:14:43.603Z,95.35135
2022-09-18T05:19:44.532Z,96.8536
2022-09-18T05:24:45.502Z,94.61125
2022-09-18T05:29:46.450Z,95.72414
2022-09-18T05:34:47.386Z,96.47525
2022-09-18T05:39:48.338Z,96.09877
2022-09-18T05:44:49.294Z,95.35135
2022-09-18T05:49:50.301Z,94.98039
2022-09-18T05:54:51.406Z,95.72414
2022-09-18T05:59:52.713Z,95.72414
2022-09-18T06:04:53.666Z,95.72414
2022-09-18T06:09:54.710Z,96.8536
2022-09-18T06:14:55.628Z,95.72414
2022-09-18T06:19:56.572Z,98.38596
2022-09-18T06:24:57.524Z,98.0
2022-09-18T06:29:58.538Z,98.77387
2022-09-18T06:34:59.501Z,97.23383
2022-09-18T06:40:00.608Z,100.34518
2022-09-18T06:45:01.648Z,99.94937
2022-09-18T06:50:02.601Z,98.0
2022-09-18T06:55:03.628Z,96.47525
2022-09-18T07:00:05.010Z,97.23383
2022-09-18T07:05:06.186Z,95.35135
2022-09-18T07:10:09.217Z,89.97156
2022-09-18T07:15:10.327Z,93.51456
2022-09-18T07:20:11.340Z,95.72414
2022-09-18T07:25:12.273Z,96.8536
2022-09-18T07:30:13.252Z,98.0
2022-09-18T07:35:14.180Z,95.72414
2022-09-18T07:40:15.225Z,96.8536
2022-09-18T07:45:16.173Z,94.98039
2022-09-18T07:50:17.218Z,95.72414
2022-09-18T07:55:18.144Z,95.35135
2022-09-18T08:00:19.097Z,98.0
2022-09-18T08:05:20.119Z,95.72414
2022-09-18T08:10:21.143Z,93.87835
2022-09-18T08:15:22.068Z,94.2439
2022-09-18T08:20:22.968Z,95.35135
2022-09-18T08:25:23.958Z,93.87835
2022-09-18T08:30:24.896Z,97.61596
2022-09-18T08:35:25.807Z,97.61596
2022-09-18T08:40:27.455Z,98.38596
2022-09-18T08:45:28.444Z,98.77387
2022-09-18T08:50:29.380Z,99.94937
2022-09-18T08:55:30.359Z,95.72414
2022-09-18T09:00:31.426Z,95.72414
2022-09-18T09:05:32.436Z,97.61596
2022-09-18T09:10:33.425Z,98.0
2022-09-18T09:15:34.324Z,97.61596
2022-09-18T09:20:35.368Z,99.94937
2022-09-18T09:25:36.279Z,100.34518
2022-09-18T09:30:37.200Z,100.743
2022-09-18T09:40:38.685Z,94.2439
2022-09-18T09:45:39.689Z,97.61596
2022-09-18T09:50:40.617Z,101.14286
2022-09-18T09:55:41.524Z,100.743
2022-09-18T10:00:42.514Z,99.16373
2022-09-18T10:05:43.447Z,99.55556
2022-09-18T10:10:44.397Z,101.54476
2022-09-18T10:15:45.454Z,99.55556
2022-09-18T10:20:46.349Z,100.34518
2022-09-18T10:25:47.451Z,102.76289
2022-09-18T10:30:48.458Z,102.35476
2022-09-18T10:35:49.456Z,97.23383
2022-09-18T10:40:50.417Z,93.15254
2022-09-18T10:45:51.300Z,94.61125
2022-09-18T10:50:52.276Z,94.2439
2022-09-18T10:55:55.969Z,99.16373
2022-09-18T11:00:57.274Z,98.77387
2022-09-18T11:05:58.318Z,99.94937
2022-09-18T11:10:59.324Z,98.38596
2022-09-18T11:16:00.298Z,100.743
2022-09-18T11:21:01.568Z,99.55556
2022-09-18T11:26:02.503Z,101.94872
2022-09-18T11:31:03.732Z,102.76289
2022-09-18T11:36:04.785Z,103.58549
2022-09-18T11:41:05.708Z,109.5914
2022-09-18T11:46:06.705Z,104.0
2022-09-18T11:51:07.613Z,104.0
2022-09-18T11:56:08.524Z,102.76289
2022-09-18T12:01:09.495Z,104.41667
2022-09-18T12:06:10.476Z,100.743
2022-09-18T12:11:10.077Z,98.0
2022-09-18T12:16:11.038Z,99.55556
2022-09-18T12:21:11.979Z,89.97156
2022-09-18T12:26:12.947Z,94.61125
2022-09-18T12:31:13.943Z,95.35135
2022-09-18T12:36:14.923Z,96.09877
2022-09-18T12:41:16.522Z,96.47525
2022-09-18T12:46:17.449Z,97.61596
2022-09-18T12:51:18.432Z,93.51456
2022-09-18T12:56:19.463Z,88.2623
2022-09-18T13:01:20.654Z,88.60094
2022-09-18T13:06:21.687Z,87.92523
2022-09-18T13:11:22.690Z,87.58974
2022-09-18T13:16:24.351Z,86.92343
2022-09-18T13:21:25.354Z,88.2623
2022-09-18T13:26:26.277Z,91.72182
2022-09-18T13:31:27.787Z,89.62648
2022-09-18T13:36:29.065Z,91.36842
2022-09-18T13:41:30.009Z,91.72182
2022-09-18T13:46:31.042Z,94.2439
2022-09-18T13:51:32.049Z,93.51456
2022-09-18T13:56:32.941Z,91.72182
2022-09-18T14:01:33.951Z,95.72414
2022-09-18T14:06:34.930Z,101.94872
2022-09-18T14:11:35.891Z,99.94937
2022-09-18T14:16:36.911Z,101.14286
2022-09-18T14:21:37.878Z,100.34518
2022-09-18T14:26:38.821Z,99.94937
2022-09-18T14:31:39.992Z,99.16373
2022-09-18T14:36:40.998Z,98.77387
2022-09-18T14:41:41.983Z,98.77387
2022-09-18T14:46:43.016Z,98.77387
2022-09-18T14:52:02.618Z,99.55556
2022-09-18T14:57:04.838Z,98.0
2022-09-18T15:02:05.715Z,101.54476
2022-09-18T15:07:06.645Z,98.77387
2022-09-18T15:12:07.661Z,98.0
2022-09-18T15:17:08.584Z,98.0
2022-09-18T15:22:09.518Z,97.61596
2022-09-18T15:27:10.484Z,99.16373
2022-09-18T15:32:11.427Z,98.0
2022-09-18T15:37:12.409Z,99.55556
2022-09-18T15:42:13.601Z,99.94937
2022-09-18T15:47:14.474Z,98.77387
2022-09-18T15:52:15.447Z,98.38596
2022-09-18T15:57:16.347Z,96.47525
2022-09-18T16:02:17.432Z,98.0
2022-09-18T16:07:18.406Z,102.76289
2022-09-18T16:12:19.415Z,99.94937
2022-09-18T16:17:20.329Z,101.94872
2022-09-18T16:22:21.242Z,101.94872
2022-09-18T16:27:22.170Z,101.94872
2022-09-18T16:32:23.077Z,102.76289
2022-09-18T16:37:24.009Z,102.76289
2022-09-18T16:42:25.041Z,101.54476
2022-09-18T16:47:25.951Z,101.94872
2022-09-18T16:52:26.913Z,100.34518
2022-09-18T16:57:28.139Z,98.77387
2022-09-18T17:02:29.146Z,98.0
2022-09-18T17:07:30.162Z,96.8536
2022-09-18T17:12:31.118Z,96.09877
2022-09-18T17:17:32.068Z,94.61125
2022-09-18T17:22:33.029Z,94.98039
2022-09-18T17:27:34.092Z,96.09877
2022-09-18T17:32:35.003Z,98.38596
2022-09-18T17:37:35.942Z,97.61596
2022-09-18T17:42:36.899Z,97.61596
2022-09-18T17:47:37.967Z,97.61596
2022-09-18T17:52:38.898Z,98.0
2022-09-18T17:57:39.846Z,97.61596
2022-09-18T18:02:40.771Z,96.8536
2022-09-18T18:07:41.803Z,96.47525
2022-09-18T18:12:42.808Z,97.23383
2022-09-18T18:17:43.827Z,96.09877
2022-09-18T18:22:44.734Z,94.61125
2022-09-18T18:27:45.668Z,95.35135
2022-09-18T18:32:46.595Z,93.87835
2022-09-18T18:37:47.834Z,92.07692
2022-09-18T18:42:48.795Z,91.36842
2022-09-18T18:47:49.768Z,91.72182
2022-09-18T18:52:50.684Z,91.72182
2022-09-18T18:57:51.634Z,92.07692
2022-09-18T19:02:52.578Z,92.07692
2022-09-18T19:07:53.507Z,92.43373
2022-09-18T19:12:54.515Z,92.79227
2022-09-18T19:17:55.456Z,93.15254
2022-09-18T19:22:56.334Z,93.87835
2022-09-18T19:27:57.256Z,92.79227
2022-09-18T19:32:58.222Z,92.43373
2022-09-18T19:37:59.203Z,92.43373
2022-09-18T19:43:00.235Z,93.87835
2022-09-18T19:48:01.298Z,93.87835
2022-09-18T19:53:02.366Z,97.61596
2022-09-18T19:58:03.307Z,96.8536
2022-09-18T20:03:04.216Z,97.61596
2022-09-18T20:08:05.134Z,96.47525
2022-09-18T20:13:06.091Z,96.47525
2022-09-18T20:18:06.994Z,96.09877
2022-09-18T20:23:07.984Z,95.72414
2022-09-18T20:28:09.060Z,95.72414
2022-09-18T20:33:10.000Z,96.09877
2022-09-18T20:38:10.942Z,96.47525
2022-09-18T20:43:11.904Z,95.72414
2022-09-18T20:48:12.868Z,96.47525
2022-09-18T20:53:13.856Z,96.8536
2022-09-18T20:58:14.942Z,96.8536
2022-09-18T21:03:16.122Z,96.09877
2022-09-18T21:08:17.028Z,96.09877
2022-09-18T21:13:17.991Z,95.72414
2022-09-18T21:18:18.899Z,96.09877
2022-09-18T21:28:23.440Z,94.98039
2022-09-18T21:33:24.404Z,94.61125
2022-09-18T21:38:25.325Z,94.61125
2022-09-18T21:43:26.308Z,93.87835
2022-09-18T21:48:27.235Z,93.15254
2022-09-18T21:53:28.736Z,92.79227
2022-09-18T21:58:29.676Z,93.15254
2022-09-18T22:03:30.656Z,93.15254
2022-09-18T22:08:31.561Z,93.87835
2022-09-18T22:13:32.515Z,93.87835
2022-09-18T22:18:33.468Z,93.87835
2022-09-18T22:23:34.420Z,93.87835
2022-09-18T22:28:35.348Z,94.61125
2022-09-18T22:33:36.278Z,93.87835
2022-09-18T22:38:37.204Z,92.79227
2022-09-18T22:43:38.152Z,92.79227
2022-09-18T22:48:39.041Z,91.72182
2022-09-18T22:58:45.430Z,91.01671
2022-09-18T23:03:46.445Z,90.66667
2022-09-18T23:08:47.404Z,90.66667
2022-09-18T23:13:48.647Z,90.31829
2022-09-18T23:18:49.580Z,91.01671
2022-09-18T23:23:50.550Z,91.36842
2022-09-18T23:28:51.474Z,90.66667
2022-09-18T23:33:52.405Z,90.31829
2022-09-18T23:38:53.330Z,91.01671
2022-09-18T23:43:54.304Z,90.66667
2022-09-18T23:48:55.303Z,91.01671
2022-09-18T23:53:56.226Z,91.01671
2022-09-18T23:58:57.165Z,91.01671
